createdAt,value
2023-04-13T00:01:26.510Z,99301.33
2023-04-13T00:04:03.739Z,99305.46
2023-04-13T00:06:39.186Z,99308.89
2023-04-13T00:09:11.627Z,99295.95
2023-04-13T00:11:43.791Z,99291.66
2023-04-13T00:14:16.072Z,99300.61
2023-04-13T00:16:48.600Z,99297.61
2023-04-13T00:19:21.038Z,99286.06
2023-04-13T00:21:53.899Z,99288.55
2023-04-13T00:24:26.265Z,99286.41
2023-04-13T00:26:58.910Z,99293.49
2023-04-13T00:29:31.276Z,99285.30
2023-04-13T00:32:04.389Z,99288.35
2023-04-13T00:34:36.641Z,99291.25
2023-04-13T00:37:08.637Z,99291.95
2023-04-13T00:39:40.795Z,99303.26
2023-04-13T00:42:13.240Z,99303.73
2023-04-13T00:44:45.542Z,99308.89
2023-04-13T00:47:26.552Z,99313.84
2023-04-13T00:50:01.579Z,99312.48
2023-04-13T00:52:38.372Z,99312.00
2023-04-13T00:55:11.652Z,99316.77
2023-04-13T00:57:44.991Z,99318.61
2023-04-13T01:00:18.878Z,99321.23
2023-04-13T01:02:52.642Z,99331.70
2023-04-13T01:05:28.175Z,99341.58
2023-04-13T01:08:09.705Z,99345.56
2023-04-13T01:10:50.683Z,99339.77
2023-04-13T01:13:27.084Z,99348.90
2023-04-13T01:16:06.175Z,99348.25
2023-04-13T01:18:43.489Z,99340.46
2023-04-13T01:21:21.907Z,99334.73
2023-04-13T01:24:10.265Z,99331.48
2023-04-13T01:26:54.059Z,99340.21
2023-04-13T01:29:29.960Z,99338.71
2023-04-13T01:32:02.856Z,99339.98
2023-04-13T01:34:36.236Z,99337.67
2023-04-13T01:37:11.555Z,99337.83
2023-04-13T01:39:43.747Z,99339.25
2023-04-13T01:42:26.858Z,99322.34
2023-04-13T01:45:00.105Z,99329.23
2023-04-13T01:47:34.748Z,99326.45
2023-04-13T01:50:25.678Z,99327.80
2023-04-13T01:53:21.190Z,99321.59
2023-04-13T01:55:54.141Z,99326.59
2023-04-13T01:58:28.323Z,99327.30
2023-04-13T02:01:07.878Z,99322.72
2023-04-13T02:03:43.517Z,99338.84
2023-04-13T02:06:15.913Z,99340.45
2023-04-13T02:08:52.334Z,99342.98
2023-04-13T02:11:24.762Z,99346.17
2023-04-13T02:13:58.273Z,99341.16
2023-04-13T02:16:31.090Z,99340.83
2023-04-13T02:19:04.085Z,99336.93
2023-04-13T02:21:36.298Z,99341.46
2023-04-13T02:24:10.509Z,99330.02
2023-04-13T02:26:44.050Z,99336.41
2023-04-13T02:29:16.493Z,99346.10
2023-04-13T02:31:50.748Z,99351.33
2023-04-13T02:34:23.246Z,99352.44
2023-04-13T02:36:55.796Z,99358.65
2023-04-13T02:39:28.668Z,99365.57
2023-04-13T02:42:02.340Z,99360.55
2023-04-13T02:44:35.394Z,99359.98
2023-04-13T02:47:08.395Z,99364.69
2023-04-13T02:49:41.172Z,99365.09
2023-04-13T02:52:27.696Z,99363.42
2023-04-13T02:55:09.332Z,99363.49
2023-04-13T02:57:51.532Z,99364.30
2023-04-13T03:00:25.848Z,99363.98
2023-04-13T03:03:03.596Z,99364.61
2023-04-13T03:05:40.485Z,99359.36
2023-04-13T03:08:14.450Z,99360.40
2023-04-13T03:10:56.457Z,99364.55
2023-04-13T03:13:28.853Z,99366.23
2023-04-13T03:16:02.988Z,99367.17
2023-04-13T03:18:35.206Z,99365.34
2023-04-13T03:21:09.022Z,99362.15
2023-04-13T03:23:46.156Z,99363.90
2023-04-13T03:26:18.653Z,99361.67
2023-04-13T03:28:50.992Z,99357.38
2023-04-13T03:31:24.773Z,99356.02
2023-04-13T03:33:58.306Z,99359.84
2023-04-13T03:36:31.643Z,99362.16
2023-04-13T03:39:05.335Z,99363.73
2023-04-13T03:41:40.014Z,99362.23
2023-04-13T03:44:13.260Z,99360.56
2023-04-13T03:46:45.765Z,99356.35
2023-04-13T03:49:27.256Z,99349.52
2023-04-13T03:51:59.612Z,99356.11
2023-04-13T03:54:32.717Z,99356.59
2023-04-13T03:57:05.472Z,99354.03
2023-04-13T03:59:38.308Z,99364.69
2023-04-13T04:02:11.338Z,99362.00
2023-04-13T04:04:45.398Z,99364.08
2023-04-13T04:07:23.767Z,99364.07
2023-04-13T04:09:56.377Z,99365.10
2023-04-13T04:12:28.812Z,99368.29
2023-04-13T04:15:01.066Z,99367.01
2023-04-13T04:17:37.424Z,99368.92
2023-04-13T04:20:13.658Z,99367.16
2023-04-13T04:22:47.587Z,99368.67
2023-04-13T04:25:22.590Z,99372.75
2023-04-13T04:27:57.847Z,99366.46
2023-04-13T04:30:33.949Z,99368.52
2023-04-13T04:33:07.488Z,99363.05
2023-04-13T04:35:51.692Z,99362.65
2023-04-13T04:38:27.279Z,99358.81
2023-04-13T04:41:02.282Z,99362.23
2023-04-13T04:43:35.911Z,99364.45
2023-04-13T04:46:10.043Z,99384.52
2023-04-13T04:48:43.220Z,99398.44
2023-04-13T04:51:15.501Z,99399.95
2023-04-13T04:53:47.888Z,99404.80
2023-04-13T04:56:20.196Z,99407.50
2023-04-13T04:58:54.967Z,99408.69
2023-04-13T05:01:35.974Z,99406.79
2023-04-13T05:04:13.544Z,99405.74
2023-04-13T05:06:48.400Z,99397.56
2023-04-13T05:09:22.112Z,99400.17
2023-04-13T05:11:58.091Z,99399.86
2023-04-13T05:14:30.558Z,99408.05
2023-04-13T05:17:03.762Z,99411.55
2023-04-13T05:19:42.035Z,99411.00
2023-04-13T05:22:43.549Z,99415.28
2023-04-13T05:25:16.705Z,99414.89
2023-04-13T05:27:49.045Z,99415.67
2023-04-13T05:30:22.820Z,99414.95
2023-04-13T05:32:55.319Z,99423.55
2023-04-13T05:35:28.575Z,99422.66
2023-04-13T05:38:01.368Z,99425.70
2023-04-13T05:40:35.444Z,99426.00
2023-04-13T05:43:07.941Z,99427.98
2023-04-13T05:45:43.490Z,99432.92
2023-04-13T05:48:19.027Z,99433.47
2023-04-13T05:50:51.588Z,99430.99
2023-04-13T05:53:23.900Z,99425.83
2023-04-13T05:55:59.467Z,99428.13
2023-04-13T05:58:31.796Z,99433.45
2023-04-13T06:01:24.646Z,99434.96
2023-04-13T06:03:58.789Z,99442.05
2023-04-13T06:06:31.621Z,99443.95
2023-04-13T06:09:05.810Z,99440.03
2023-04-13T06:11:38.042Z,99440.59
2023-04-13T06:14:10.544Z,99444.89
2023-04-13T06:16:42.843Z,99446.64
2023-04-13T06:19:15.201Z,99447.90
2023-04-13T06:21:47.272Z,99446.77
2023-04-13T06:24:19.585Z,99447.33
2023-04-13T06:26:52.372Z,99450.11
2023-04-13T06:29:24.684Z,99447.56
2023-04-13T06:32:04.629Z,99451.36
2023-04-13T06:34:36.970Z,99453.13
2023-04-13T06:37:09.931Z,99456.95
2023-04-13T06:39:51.672Z,99462.52
2023-04-13T06:42:24.344Z,99466.34
2023-04-13T06:45:11.286Z,99471.98
2023-04-13T06:47:45.991Z,99470.93
2023-04-13T06:50:19.255Z,99473.81
2023-04-13T06:52:52.451Z,99478.42
2023-04-13T06:55:25.036Z,99480.67
2023-04-13T06:57:57.290Z,99485.92
2023-04-13T07:00:48.496Z,99482.83
2023-04-13T07:03:22.101Z,99488.40
2023-04-13T07:05:55.050Z,99488.57
2023-04-13T07:08:28.367Z,99484.96
2023-04-13T07:11:01.151Z,99478.28
2023-04-13T07:13:39.113Z,99476.37
2023-04-13T07:16:13.260Z,99482.90
2023-04-13T07:18:48.603Z,99485.20
2023-04-13T07:21:21.431Z,99478.94
2023-04-13T07:24:00.119Z,99482.03
2023-04-13T07:26:33.986Z,99481.61
2023-04-13T07:29:13.233Z,99484.13
2023-04-13T07:31:47.830Z,99489.15
2023-04-13T07:34:20.566Z,99496.41
2023-04-13T07:36:53.110Z,99510.08
2023-04-13T07:39:28.787Z,99512.97
2023-04-13T07:42:01.822Z,99516.40
2023-04-13T07:44:41.342Z,99518.36
2023-04-13T07:47:14.246Z,99521.60
2023-04-13T07:49:47.250Z,99509.55
2023-04-13T07:52:22.328Z,99527.02
2023-04-13T07:54:55.032Z,99530.38
2023-04-13T07:57:28.526Z,99535.56
2023-04-13T08:00:06.099Z,99545.59
2023-04-13T08:02:46.173Z,99548.58
2023-04-13T08:05:22.962Z,99554.21
2023-04-13T08:07:55.818Z,99550.61
2023-04-13T08:10:28.715Z,99558.98
2023-04-13T08:13:01.521Z,99565.37
2023-04-13T08:15:34.062Z,99561.66
2023-04-13T08:18:07.100Z,99545.70
2023-04-13T08:20:39.567Z,99559.53
2023-04-13T08:23:12.488Z,99558.13
2023-04-13T08:25:45.004Z,99563.69
2023-04-13T08:28:17.613Z,99559.45
2023-04-13T08:30:50.147Z,99572.81
2023-04-13T08:33:22.962Z,99571.77
2023-04-13T08:35:55.818Z,99570.52
2023-04-13T08:38:28.423Z,99577.67
2023-04-13T08:41:03.603Z,99574.27
2023-04-13T08:43:38.110Z,99576.49
2023-04-13T08:46:12.132Z,99572.04
2023-04-13T08:48:53.458Z,99570.15
2023-04-13T08:51:47.429Z,99564.41
2023-04-13T08:54:20.631Z,99569.23
2023-04-13T08:56:53.212Z,99576.73
2023-04-13T08:59:29.096Z,99572.58
2023-04-13T09:02:01.913Z,99573.67
2023-04-13T09:04:39.141Z,99560.80
2023-04-13T09:07:17.779Z,99568.73
2023-04-13T09:09:52.372Z,99569.68
2023-04-13T09:12:25.362Z,99566.01
2023-04-13T09:14:58.524Z,99562.52
2023-04-13T09:17:34.022Z,99556.80
2023-04-13T09:20:17.334Z,99552.77
2023-04-13T09:22:49.852Z,99550.92
2023-04-13T09:25:27.428Z,99550.15
2023-04-13T09:28:01.131Z,99549.36
2023-04-13T09:30:33.485Z,99545.82
2023-04-13T09:33:07.131Z,99544.41
2023-04-13T09:35:40.205Z,99548.79
2023-04-13T09:38:15.560Z,99546.09
2023-04-13T09:40:54.549Z,99545.32
2023-04-13T09:43:37.987Z,99539.21
2023-04-13T09:46:16.978Z,99545.45
2023-04-13T09:49:01.783Z,99550.63
2023-04-13T09:51:39.936Z,99555.73
2023-04-13T09:54:13.690Z,99542.16
2023-04-13T09:56:53.013Z,99548.27
2023-04-13T09:59:27.404Z,99546.74
2023-04-13T10:02:00.173Z,99551.27
2023-04-13T10:04:36.086Z,99548.23
2023-04-13T10:07:10.057Z,99554.64
2023-04-13T10:09:43.572Z,99550.15
2023-04-13T10:12:19.350Z,99560.53
2023-04-13T10:14:56.039Z,99569.86
2023-04-13T10:17:46.194Z,99568.27
2023-04-13T10:20:19.314Z,99565.53
2023-04-13T10:22:52.560Z,99572.27
2023-04-13T10:25:33.295Z,99563.65
2023-04-13T10:28:06.792Z,99577.98
2023-04-13T10:30:49.288Z,99581.55
2023-04-13T10:33:21.634Z,99585.55
2023-04-13T10:36:01.692Z,99583.71
2023-04-13T10:38:43.300Z,99586.20
2023-04-13T10:41:26.828Z,99582.44
2023-04-13T10:44:06.368Z,99579.29
2023-04-13T10:46:38.988Z,99578.67
2023-04-13T10:49:11.712Z,99582.30
2023-04-13T10:51:45.330Z,99589.47
2023-04-13T10:54:17.839Z,99586.98
2023-04-13T10:56:59.638Z,99584.48
2023-04-13T10:59:56.054Z,99586.12
2023-04-13T11:02:34.212Z,99585.80
2023-04-13T11:05:08.177Z,99606.99
2023-04-13T11:07:42.046Z,99609.52
2023-04-13T11:10:14.880Z,99614.70
2023-04-13T11:12:54.186Z,99616.21
2023-04-13T11:15:28.197Z,99613.36
2023-04-13T11:18:02.636Z,99609.41
2023-04-13T11:20:36.038Z,99602.08
2023-04-13T11:23:18.659Z,99608.35
2023-04-13T11:25:55.137Z,99610.27
2023-04-13T11:28:40.088Z,99612.58
2023-04-13T11:31:12.838Z,99623.60
2023-04-13T11:33:49.626Z,99630.13
2023-04-13T11:36:23.720Z,99628.69
2023-04-13T11:38:56.133Z,99635.54
2023-04-13T11:41:32.503Z,99644.31
2023-04-13T11:44:05.801Z,99642.25
2023-04-13T11:46:39.158Z,99640.79
2023-04-13T11:49:12.682Z,99641.29
2023-04-13T11:51:45.995Z,99640.52
2023-04-13T11:54:18.888Z,99645.02
2023-04-13T11:56:51.492Z,99645.27
2023-04-13T11:59:26.767Z,99641.46
2023-04-13T12:02:03.796Z,99644.52
2023-04-13T12:04:41.421Z,99649.27
2023-04-13T12:07:15.515Z,99646.23
2023-04-13T12:15:17.169Z,99656.88
2023-04-13T12:18:04.847Z,99653.21
2023-04-13T12:20:48.382Z,99652.44
2023-04-13T12:23:24.026Z,99673.13
2023-04-13T12:26:25.510Z,99674.80
2023-04-13T12:28:59.120Z,99672.42
2023-04-13T12:31:37.270Z,99666.48
2023-04-13T12:34:09.789Z,99665.11
2023-04-13T12:36:42.112Z,99661.17
2023-04-13T12:39:14.598Z,99664.79
2023-04-13T12:41:46.960Z,99671.58
2023-04-13T12:44:19.071Z,99673.54
2023-04-13T12:46:51.401Z,99676.02
2023-04-13T12:49:23.886Z,99670.69
2023-04-13T12:51:56.808Z,99671.09
2023-04-13T12:54:30.824Z,99672.98
2023-04-13T12:57:03.481Z,99669.89
2023-04-13T12:59:35.775Z,99671.09
2023-04-13T13:02:08.225Z,99666.55
2023-04-13T13:04:41.313Z,99654.31
2023-04-13T13:07:13.649Z,99661.80
2023-04-13T13:09:46.212Z,99663.17
2023-04-13T13:12:18.812Z,99660.38
2023-04-13T13:14:51.220Z,99665.23
2023-04-13T13:17:23.625Z,99662.50
2023-04-13T13:19:55.922Z,99670.89
2023-04-13T13:22:29.287Z,99673.39
2023-04-13T13:25:01.681Z,99675.76
2023-04-13T13:28:05.529Z,99676.82
2023-04-13T13:30:26.656Z,99676.22
2023-04-13T13:32:58.758Z,99674.10
2023-04-13T13:35:32.001Z,99678.58
2023-04-13T13:38:04.683Z,99685.37
2023-04-13T13:40:36.750Z,99691.42
2023-04-13T13:43:09.049Z,99692.07
2023-04-13T13:45:41.530Z,99681.27
2023-04-13T13:48:14.230Z,99690.29
2023-04-13T13:50:53.652Z,99697.82
2023-04-13T13:53:26.674Z,99697.55
2023-04-13T13:55:59.327Z,99692.77
2023-04-13T13:58:31.791Z,99697.17
2023-04-13T14:01:04.946Z,99697.63
2023-04-13T14:03:37.513Z,99700.39
2023-04-13T14:06:10.962Z,99702.90
2023-04-13T14:08:43.487Z,99701.28
2023-04-13T14:11:15.867Z,99686.54
2023-04-13T14:13:49.388Z,99699.47
2023-04-13T14:16:22.975Z,99700.15
2023-04-13T14:18:55.514Z,99686.67
2023-04-13T14:21:27.832Z,99698.75
2023-04-13T14:24:00.313Z,99697.83
2023-04-13T14:26:36.384Z,99704.04
2023-04-13T14:29:09.083Z,99705.98
2023-04-13T14:31:41.564Z,99703.33
2023-04-13T14:34:13.927Z,99708.86
2023-04-13T14:36:47.721Z,99711.06
2023-04-13T14:39:22.311Z,99713.05
2023-04-13T14:41:56.429Z,99711.23
2023-04-13T14:44:29.151Z,99715.83
2023-04-13T14:47:03.135Z,99719.39
2023-04-13T14:49:36.907Z,99718.49
2023-04-13T14:52:09.183Z,99710.43
2023-04-13T14:54:42.305Z,99722.59
2023-04-13T14:57:16.237Z,99730.13
2023-04-13T14:59:48.654Z,99732.30
2023-04-13T15:02:21.022Z,99734.73
2023-04-13T15:04:53.600Z,99735.70
2023-04-13T15:07:29.451Z,99733.36
2023-04-13T15:10:05.682Z,99737.37
2023-04-13T15:12:38.026Z,99735.45
2023-04-13T15:15:12.216Z,99734.94
2023-04-13T15:17:44.563Z,99737.17
2023-04-13T15:20:17.409Z,99737.23
2023-04-13T15:22:49.760Z,99740.79
2023-04-13T15:25:22.615Z,99735.88
2023-04-13T15:27:56.293Z,99738.50
2023-04-13T15:30:30.570Z,99733.60
2023-04-13T15:33:04.301Z,99738.25
2023-04-13T15:35:38.074Z,99741.02
2023-04-13T15:38:10.441Z,99731.70
2023-04-13T15:40:44.072Z,99744.27
2023-04-13T15:43:16.305Z,99742.80
2023-04-13T15:45:48.824Z,99745.61
2023-04-13T15:48:21.147Z,99748.70
2023-04-13T15:51:01.124Z,99746.53
2023-04-13T15:53:33.618Z,99751.04
2023-04-13T15:56:08.610Z,99756.61
2023-04-13T15:58:41.264Z,99756.80
2023-04-13T16:01:14.472Z,99756.66
2023-04-13T16:03:46.808Z,99756.30
2023-04-13T16:06:20.044Z,99762.52
2023-04-13T16:08:56.923Z,99763.19
2023-04-13T16:11:31.308Z,99765.67
2023-04-13T16:14:07.601Z,99764.18
2023-04-13T16:16:46.704Z,99764.43
2023-04-13T16:19:19.276Z,99764.75
2023-04-13T16:21:53.160Z,99773.35
2023-04-13T16:24:25.543Z,99774.65
2023-04-13T16:26:58.465Z,99766.08
2023-04-13T16:29:33.329Z,99766.65
2023-04-13T16:32:06.368Z,99781.83
2023-04-13T16:34:38.523Z,99779.38
2023-04-13T16:37:10.971Z,99784.25
2023-04-13T16:39:44.387Z,99789.08
2023-04-13T16:42:17.907Z,99789.50
2023-04-13T16:44:50.444Z,99794.15
2023-04-13T16:47:23.446Z,99797.45
2023-04-13T16:49:55.880Z,99804.59
2023-04-13T16:52:28.221Z,99805.66
2023-04-13T16:55:00.582Z,99813.89
2023-04-13T16:57:33.289Z,99816.86
2023-04-13T17:00:09.412Z,99821.02
2023-04-13T17:02:43.188Z,99829.59
2023-04-13T17:05:16.222Z,99830.09
2023-04-13T17:07:49.810Z,99838.33
2023-04-13T17:10:23.113Z,99840.00
2023-04-13T17:12:56.223Z,99845.25
2023-04-13T17:15:28.615Z,99848.06
2023-04-13T17:18:01.169Z,99850.70
2023-04-13T17:20:33.545Z,99853.36
2023-04-13T17:23:05.918Z,99848.34
2023-04-13T17:25:41.531Z,99859.27
2023-04-13T17:28:14.422Z,99865.41
2023-04-13T17:30:47.089Z,99868.05
2023-04-13T17:33:20.009Z,99875.14
2023-04-13T17:35:55.682Z,99873.08
2023-04-13T17:38:28.206Z,99878.02
2023-04-13T17:41:00.454Z,99880.02
2023-04-13T17:43:33.438Z,99884.56
2023-04-13T17:46:06.501Z,99885.04
2023-04-13T17:48:41.150Z,99890.14
2023-04-13T17:51:13.840Z,99886.38
2023-04-13T17:53:47.946Z,99884.86
2023-04-13T17:56:21.458Z,99887.19
2023-04-13T17:58:54.237Z,99884.39
2023-04-13T18:01:27.377Z,99885.83
2023-04-13T18:04:01.476Z,99885.27
2023-04-13T18:06:34.016Z,99882.30
2023-04-13T18:09:06.431Z,99882.54
2023-04-13T18:11:38.753Z,99882.97
2023-04-13T18:14:12.387Z,99868.12
2023-04-13T18:16:44.800Z,99885.56
2023-04-13T18:19:17.032Z,99891.48
2023-04-13T18:21:49.731Z,99884.52
2023-04-13T18:24:22.069Z,99888.10
2023-04-13T18:26:54.595Z,99887.29
2023-04-13T18:29:27.579Z,99886.69
2023-04-13T18:32:00.299Z,99890.02
2023-04-13T18:34:34.397Z,99889.00
2023-04-13T18:37:08.065Z,99890.99
2023-04-13T18:39:40.769Z,99888.98
2023-04-13T18:42:13.284Z,99891.11
2023-04-13T18:44:45.718Z,99895.04
2023-04-13T18:47:19.387Z,99893.50
2023-04-13T18:49:52.856Z,99899.73
2023-04-13T18:52:26.535Z,99901.55
2023-04-13T18:54:59.068Z,99904.26
2023-04-13T18:57:31.442Z,99908.33
2023-04-13T19:00:04.941Z,99909.36
2023-04-13T19:02:37.843Z,99909.58
2023-04-13T19:05:13.531Z,99907.13
2023-04-13T19:07:58.807Z,99909.22
2023-04-13T19:10:32.447Z,99914.39
2023-04-13T19:13:04.735Z,99912.55
2023-04-13T19:15:37.284Z,99910.23
2023-04-13T19:18:11.437Z,99906.15
2023-04-13T19:20:43.639Z,99909.88
2023-04-13T19:23:16.147Z,99908.92
2023-04-13T19:25:48.405Z,99909.40
2023-04-13T19:28:20.901Z,99911.79
2023-04-13T19:30:55.228Z,99912.67
2023-04-13T19:33:27.798Z,99913.48
2023-04-13T19:36:00.367Z,99909.95
2023-04-13T19:38:32.654Z,99911.61
2023-04-13T19:41:05.132Z,99908.42
2023-04-13T19:43:38.983Z,99910.18
2023-04-13T19:46:11.349Z,99916.05
2023-04-13T19:48:43.599Z,99902.23
2023-04-13T19:51:16.398Z,99917.17
2023-04-13T19:53:49.610Z,99917.11
2023-04-13T19:56:23.428Z,99918.23
2023-04-13T19:58:55.779Z,99921.48
2023-04-13T20:01:30.418Z,99923.23
2023-04-13T20:04:05.257Z,99925.61
2023-04-13T20:06:36.359Z,99917.06
2023-04-13T20:09:13.281Z,99915.58
2023-04-13T20:11:46.118Z,99920.56
2023-04-13T20:14:18.535Z,99925.97
2023-04-13T20:16:50.880Z,99927.52
2023-04-13T20:19:24.370Z,99930.21
2023-04-13T20:21:57.830Z,99936.20
2023-04-13T20:24:30.216Z,99926.60
2023-04-13T20:27:02.440Z,99926.46
2023-04-13T20:29:34.605Z,99940.85
2023-04-13T20:32:07.379Z,99933.40
2023-04-13T20:34:40.496Z,99945.47
2023-04-13T20:37:14.599Z,99946.88
2023-04-13T20:39:52.797Z,99949.64
2023-04-13T20:42:25.492Z,99949.04
2023-04-13T20:44:58.622Z,99946.36
2023-04-13T20:47:32.212Z,99948.90
2023-04-13T20:50:05.194Z,99948.35
2023-04-13T20:52:37.456Z,99933.31
2023-04-13T20:55:12.021Z,99935.63
2023-04-13T20:57:44.805Z,99945.47
2023-04-13T21:00:19.236Z,99948.74
2023-04-13T21:02:53.497Z,99950.69
2023-04-13T21:05:26.001Z,99941.02
2023-04-13T21:07:58.322Z,99936.80
2023-04-13T21:10:30.525Z,99932.19
2023-04-13T21:13:03.796Z,99931.81
2023-04-13T21:15:35.858Z,99925.20
2023-04-13T21:18:08.447Z,99926.88
2023-04-13T21:20:41.176Z,99929.74
2023-04-13T21:23:13.557Z,99932.91
2023-04-13T21:25:47.537Z,99927.34
2023-04-13T21:28:20.481Z,99925.89
2023-04-13T21:30:52.895Z,99914.55
2023-04-13T21:33:25.676Z,99927.23
2023-04-13T21:38:50.550Z,99916.25
2023-04-13T21:41:23.629Z,99912.82
2023-04-13T21:43:55.799Z,99912.16
2023-04-13T21:46:28.499Z,99912.29
2023-04-13T21:49:01.535Z,99909.91
2023-04-13T21:51:34.048Z,99908.48
2023-04-13T21:54:07.312Z,99908.64
2023-04-13T21:56:40.484Z,99880.21
2023-04-13T21:59:12.665Z,99906.64
2023-04-13T22:01:45.871Z,99904.41
2023-04-13T22:04:18.809Z,99905.91
2023-04-13T22:06:51.281Z,99906.24
2023-04-13T22:09:23.642Z,99906.50
2023-04-13T22:11:56.234Z,99903.41
2023-04-13T22:14:28.438Z,99899.13
2023-04-13T22:17:00.772Z,99897.86
2023-04-13T22:19:32.980Z,99883.86
2023-04-13T22:22:05.846Z,99898.28
2023-04-13T22:24:37.990Z,99898.85
2023-04-13T22:27:28.654Z,99892.09
2023-04-13T22:30:20.009Z,99888.10
2023-04-13T22:32:52.437Z,99880.05
2023-04-13T22:35:25.251Z,99882.27
2023-04-13T22:37:57.642Z,99884.25
2023-04-13T22:40:30.212Z,99884.38
2023-04-13T22:43:02.329Z,99886.35
2023-04-13T22:45:34.662Z,99887.22
2023-04-13T22:48:07.444Z,99883.33
2023-04-13T22:50:40.490Z,99887.77
2023-04-13T22:53:12.517Z,99887.88
2023-04-13T22:55:44.522Z,99886.12
2023-04-13T22:58:16.674Z,99886.11
2023-04-13T23:00:48.883Z,99884.12
2023-04-13T23:03:21.423Z,99882.62
2023-04-13T23:05:54.055Z,99872.08
2023-04-13T23:08:29.189Z,99883.81
2023-04-13T23:11:09.920Z,99884.84
2023-04-13T23:13:42.033Z,99880.14
2023-04-13T23:16:14.312Z,99869.51
2023-04-13T23:18:46.486Z,99879.75
2023-04-13T23:21:18.795Z,99873.86
2023-04-13T23:23:51.558Z,99874.10
2023-04-13T23:26:24.069Z,99874.89
2023-04-13T23:28:56.394Z,99874.48
2023-04-13T23:31:28.802Z,99871.79
2023-04-13T23:34:01.001Z,99871.39
2023-04-13T23:36:34.022Z,99853.02
2023-04-13T23:39:07.070Z,99860.54
2023-04-13T23:41:39.115Z,99858.16
2023-04-13T23:44:11.350Z,99855.83
2023-04-13T23:46:44.601Z,99852.50
2023-04-13T23:49:17.661Z,99846.54
2023-04-13T23:51:49.749Z,99847.58
2023-04-13T23:54:21.867Z,99841.84
2023-04-13T23:56:54.005Z,99842.33
2023-04-13T23:59:26.396Z,99840.79
